Sumner, Michigan
Current Conditions -  °F | °C
As of 3:13 AM on Thursday 29 Jan 2015 (Local Time) from KAMN Reporting Station
Broken Clouds Broken Clouds  
Wind Chill: -6°   Ceiling: 11000
Heat Index: -3°   Visibility: 10mi
Dew Point: -8°   Wind: 5mph
Humidity: 70%   Direction: 150°SSE
Pressure: 29.91"   Gusts: NA
Location:  43.31°N, 84.82°W
Report Text: KAMN 290813Z AUTO 15004KT 10SM SCT090 BKN110 M03/M08 A2991 RMK AO2 T10301078
Loading
Personal Weather Stations






























Interactive Weather Map New forecast layout! Learn more

10-Day Weather Forecast

Advertisements
Track Severe Weather on mobile